Time;durP1;ratioP1;P1;durP2;ratioP2;P2;SDS_P1;SDS_P2;PMS_P1;PMS_P2;Temp;Humidity;BMP_temperature;BMP_pressure;BME280_temperature;BME280_humidity;BME280_pressure;Samples;Min_cycle;Max_cycle;Signal;HPM_P1;HPM_P2
2022/01/08 00:01:58;;;;;;;42.17;37.65;;;;;;;;;;5128081;27;20015;-43
2022/01/08 00:04:23;;;;;;;39.58;34.35;;;;;;;;;;5128047;27;20052;-46
2022/01/08 00:06:48;;;;;;;37.58;33.00;;;;;;;;;;5127880;27;20100;-45
2022/01/08 00:09:14;;;;;;;48.15;37.38;;;;;;;;;;5126778;27;20057;-43
2022/01/08 00:11:42;;;;;;;36.85;31.40;;;;;;;;;;5126039;27;20023;-49
2022/01/08 00:14:09;;;;;;;34.55;30.42;;;;;;;;;;5127952;27;20021;-44
2022/01/08 00:16:35;;;;;;;45.83;31.80;;;;;;;;;;5126095;27;20690;-45
2022/01/08 00:19:00;;;;;;;46.88;31.98;;;;;;;;;;5126987;27;20023;-47
2022/01/08 00:21:25;;;;;;;40.17;29.67;;;;;;;;;;5124131;27;20073;-47
2022/01/08 00:23:51;;;;;;;35.25;31.60;;;;;;;;;;5127332;27;20019;-46
2022/01/08 00:26:16;;;;;;;39.80;33.53;;;;;;;;;;5127734;27;20110;-45
2022/01/08 00:28:41;;;;;;;40.10;35.92;;;;;;;;;;5127289;27;20030;-44
2022/01/08 00:31:10;;;;;;;42.22;32.92;;;;;;;;;;5126940;27;20512;-48
2022/01/08 00:33:36;;;;;;;36.33;32.40;;;;;;;;;;5124729;27;20019;-48
2022/01/08 00:36:01;;;;;;;42.70;35.35;;;;;;;;;;5124771;27;20029;-46
2022/01/08 00:38:26;;;;;;;50.42;33.22;;;;;;;;;;5126452;27;20094;-45
2022/01/08 00:40:52;;;;;;;30.95;27.73;;;;;;;;;;5125558;27;20845;-49
2022/01/08 00:43:17;;;;;;;38.53;30.58;;;;;;;;;;5126701;27;20052;-46
2022/01/08 00:45:42;;;;;;;41.88;34.05;;;;;;;;;;5125390;27;20088;-44
2022/01/08 00:48:08;;;;;;;43.63;34.05;;;;;;;;;;5126417;27;20385;-49
2022/01/08 00:50:33;;;;;;;34.00;30.42;;;;;;;;;;5125769;27;20719;-49
2022/01/08 00:52:58;;;;;;;36.10;32.13;;;;;;;;;;5124392;27;20019;-45
2022/01/08 00:55:24;;;;;;;42.88;32.00;;;;;;;;;;5127140;27;20034;-45
2022/01/08 00:57:49;;;;;;;35.65;30.75;;;;;;;;;;5126194;27;20031;-48
2022/01/08 01:00:14;;;;;;;39.70;30.88;;;;;;;;;;5126830;27;20023;-49
2022/01/08 01:02:40;;;;;;;35.95;30.08;;;;;;;;;;5126808;27;20485;-49
2022/01/08 01:05:06;;;;;;;37.17;29.42;;;;;;;;;;5126035;27;20023;-47
2022/01/08 01:07:31;;;;;;;37.03;27.60;;;;;;;;;;5125782;27;20494;-45
2022/01/08 01:09:57;;;;;;;47.10;34.00;;;;;;;;;;5126344;27;20019;-46
2022/01/08 01:12:22;;;;;;;39.78;30.23;;;;;;;;;;5107578;28;20023;-46
2022/01/08 01:14:47;;;;;;;43.00;35.00;;;;;;;;;;5126782;27;20019;-50
2022/01/08 01:17:13;;;;;;;47.75;36.00;;;;;;;;;;5125510;28;20072;-49
2022/01/08 01:19:38;;;;;;;43.63;33.58;;;;;;;;;;5126469;28;20043;-48
2022/01/08 01:22:04;;;;;;;41.08;32.65;;;;;;;;;;5127238;28;20453;-46
2022/01/08 01:24:31;;;;;;;43.13;31.65;;;;;;;;;;5126485;28;20030;-47
2022/01/08 01:48:20;;;;;;;38.22;29.63;;;;;;;;;;5126890;28;20582;-48
2022/01/08 01:50:45;;;;;;;34.10;30.48;;;;;;;;;;5125716;28;20047;-46
2022/01/08 01:53:11;;;;;;;34.65;27.55;;;;;;;;;;5125599;27;20705;-47
2022/01/08 01:55:36;;;;;;;33.35;29.80;;;;;;;;;;5124607;28;20103;-44
2022/01/08 01:58:05;;;;;;;32.72;24.88;;;;;;;;;;5125971;28;20020;-48
2022/01/08 02:00:31;;;;;;;39.63;25.02;;;;;;;;;;5126115;28;20106;-47
2022/01/08 02:02:56;;;;;;;28.27;22.08;;;;;;;;;;5125078;28;20106;-49
2022/01/08 02:05:22;;;;;;;29.05;20.33;;;;;;;;;;5126652;28;20462;-46
2022/01/08 02:07:47;;;;;;;26.75;20.35;;;;;;;;;;5126478;28;20374;-46
2022/01/08 02:10:12;;;;;;;25.67;20.02;;;;;;;;;;5126244;28;20466;-45
2022/01/08 02:12:37;;;;;;;26.13;18.60;;;;;;;;;;5124997;28;20459;-44
2022/01/08 02:15:03;;;;;;;24.75;17.27;;;;;;;;;;5126246;28;20398;-46
2022/01/08 02:17:28;;;;;;;25.02;18.65;;;;;;;;;;5126171;28;20562;-46
2022/01/08 02:19:54;;;;;;;26.60;18.73;;;;;;;;;;5125712;28;20047;-47
2022/01/08 02:22:20;;;;;;;25.20;19.52;;;;;;;;;;5126644;27;20053;-47
2022/01/08 02:24:46;;;;;;;22.20;19.75;;;;;;;;;;5129990;27;20019;-45
2022/01/08 02:27:11;;;;;;;26.45;19.40;;;;;;;;;;5129613;27;20057;-45
2022/01/08 02:29:37;;;;;;;30.10;21.50;;;;;;;;;;5129547;27;20102;-47
2022/01/08 02:32:10;;;;;;;21.20;16.80;;;;;;;;;;5129211;27;20023;-45
2022/01/08 02:34:36;;;;;;;22.00;19.15;;;;;;;;;;5127418;27;20128;-49
2022/01/08 02:37:02;;;;;;;38.40;19.33;;;;;;;;;;5129857;27;20520;-48
2022/01/08 02:39:30;;;;;;;27.27;20.52;;;;;;;;;;5128462;27;20023;-48
2022/01/08 02:41:58;;;;;;;35.15;21.98;;;;;;;;;;5129015;27;20023;-48
2022/01/08 02:44:24;;;;;;;28.40;19.25;;;;;;;;;;5128797;27;20046;-48
2022/01/08 02:46:49;;;;;;;32.25;16.42;;;;;;;;;;5129353;27;20015;-45
2022/01/08 02:49:15;;;;;;;23.80;17.00;;;;;;;;;;5129675;27;20454;-47
2022/01/08 02:51:40;;;;;;;19.90;16.83;;;;;;;;;;5128840;27;20076;-46
2022/01/08 02:54:09;;;;;;;29.15;17.05;;;;;;;;;;5129697;27;20027;-47
2022/01/08 02:56:41;;;;;;;18.80;12.60;;;;;;;;;;5128224;27;20121;-47
2022/01/08 02:59:07;;;;;;;14.85;11.77;;;;;;;;;;5123898;27;20024;-45
2022/01/08 03:01:33;;;;;;;13.77;10.95;;;;;;;;;;5129182;27;20023;-45
2022/01/08 03:03:59;;;;;;;21.42;12.32;;;;;;;;;;5129580;27;20027;-44
2022/01/08 03:06:24;;;;;;;15.38;11.90;;;;;;;;;;5129934;27;20569;-45
2022/01/08 03:08:50;;;;;;;13.93;11.98;;;;;;;;;;5129171;27;20077;-47
2022/01/08 03:11:15;;;;;;;21.10;15.25;;;;;;;;;;5128774;27;20524;-45
2022/01/08 03:13:40;;;;;;;17.35;13.80;;;;;;;;;;5128853;27;20102;-42
2022/01/08 03:16:06;;;;;;;18.85;15.63;;;;;;;;;;5128858;27;20075;-46
2022/01/08 03:18:32;;;;;;;22.10;14.57;;;;;;;;;;5128965;27;20075;-44
2022/01/08 03:21:04;;;;;;;26.05;13.65;;;;;;;;;;5128213;27;20047;-46
2022/01/08 03:23:42;;;;;;;19.92;13.10;;;;;;;;;;5128562;27;20019;-46
2022/01/08 03:26:08;;;;;;;18.90;13.55;;;;;;;;;;5127824;27;20910;-47
2022/01/08 03:28:33;;;;;;;24.73;15.65;;;;;;;;;;5128592;27;20026;-44
2022/01/08 03:30:58;;;;;;;18.35;12.07;;;;;;;;;;5128314;27;20015;-47
2022/01/08 03:33:24;;;;;;;12.25;11.10;;;;;;;;;;5127482;27;20033;-48
2022/01/08 03:35:49;;;;;;;18.15;12.00;;;;;;;;;;5129479;27;20011;-46
2022/01/08 03:38:14;;;;;;;19.73;11.70;;;;;;;;;;5129193;27;20031;-47
2022/01/08 03:40:40;;;;;;;12.07;9.70;;;;;;;;;;5128937;27;20721;-44
2022/01/08 03:43:05;;;;;;;15.65;9.75;;;;;;;;;;5128855;27;20400;-47
2022/01/08 03:45:30;;;;;;;18.23;8.80;;;;;;;;;;5128254;27;20027;-44
2022/01/08 03:50:29;;;;;;;25.55;11.18;;;;;;;;;;5127819;27;20044;-47
2022/01/08 03:52:55;;;;;;;16.58;9.63;;;;;;;;;;5128081;27;20015;-45
2022/01/08 03:55:20;;;;;;;13.05;9.57;;;;;;;;;;5127766;27;20026;-46
2022/01/08 03:57:46;;;;;;;13.48;10.27;;;;;;;;;;5127179;27;20485;-47
2022/01/08 04:00:11;;;;;;;13.90;9.60;;;;;;;;;;5127499;27;20026;-45
2022/01/08 04:02:36;;;;;;;22.38;10.93;;;;;;;;;;5127481;27;20015;-45
2022/01/08 04:05:02;;;;;;;11.15;9.07;;;;;;;;;;5125326;27;20468;-43
2022/01/08 04:07:27;;;;;;;16.13;8.82;;;;;;;;;;5125479;27;20052;-48
2022/01/08 04:09:52;;;;;;;13.75;10.32;;;;;;;;;;5127067;27;20023;-45
2022/01/08 04:12:28;;;;;;;17.52;9.13;;;;;;;;;;5126722;27;20019;-49
2022/01/08 04:15:04;;;;;;;18.38;9.48;;;;;;;;;;5126756;27;20027;-47
2022/01/08 04:17:30;;;;;;;11.90;8.55;;;;;;;;;;5127428;27;20023;-47
2022/01/08 04:19:55;;;;;;;12.82;7.68;;;;;;;;;;5127484;27;20657;-48
2022/01/08 04:22:20;;;;;;;11.95;7.40;;;;;;;;;;5127859;27;20039;-47
2022/01/08 04:24:46;;;;;;;19.90;7.15;;;;;;;;;;5127734;27;20046;-48
2022/01/08 04:27:11;;;;;;;9.00;6.15;;;;;;;;;;5127180;27;20046;-50
2022/01/08 04:29:37;;;;;;;9.55;6.05;;;;;;;;;;5124618;27;20030;-47
2022/01/08 04:32:02;;;;;;;9.52;6.72;;;;;;;;;;5126465;27;20046;-46
2022/01/08 04:34:27;;;;;;;8.38;6.65;;;;;;;;;;5125571;27;20103;-44
2022/01/08 04:36:53;;;;;;;12.52;9.20;;;;;;;;;;5126624;27;20071;-47
2022/01/08 04:39:18;;;;;;;10.65;9.52;;;;;;;;;;5126988;27;20072;-49
2022/01/08 04:41:44;;;;;;;17.40;10.45;;;;;;;;;;5127410;27;20489;-43
2022/01/08 04:44:10;;;;;;;10.95;8.77;;;;;;;;;;5127341;27;20841;-44
2022/01/08 04:46:37;;;;;;;14.80;11.07;;;;;;;;;;5127186;27;20030;-46
2022/01/08 04:49:03;;;;;;;12.50;8.70;;;;;;;;;;5126750;27;20050;-47
2022/01/08 04:51:28;;;;;;;11.15;7.88;;;;;;;;;;5125436;27;20483;-44
2022/01/08 04:53:53;;;;;;;11.05;7.90;;;;;;;;;;5126350;27;20022;-46
2022/01/08 04:56:19;;;;;;;10.55;8.75;;;;;;;;;;5126571;27;20418;-46
2022/01/08 04:58:44;;;;;;;11.95;9.52;;;;;;;;;;5125238;27;20385;-49
2022/01/08 05:01:13;;;;;;;14.05;9.93;;;;;;;;;;5126707;27;20058;-45
2022/01/08 05:03:38;;;;;;;11.10;7.72;;;;;;;;;;5126708;27;20054;-50
2022/01/08 05:06:03;;;;;;;16.83;6.82;;;;;;;;;;5126577;27;20099;-47
2022/01/08 05:08:29;;;;;;;15.07;6.18;;;;;;;;;;5127288;27;20098;-45
2022/01/08 05:10:54;;;;;;;9.02;5.65;;;;;;;;;;5125886;27;20106;-45
2022/01/08 05:13:20;;;;;;;16.02;5.95;;;;;;;;;;5125222;27;20011;-44
2022/01/08 05:15:45;;;;;;;7.57;5.50;;;;;;;;;;5125970;27;20011;-48
2022/01/08 05:18:11;;;;;;;13.80;7.40;;;;;;;;;;5126556;27;20526;-47
2022/01/08 05:20:39;;;;;;;16.95;8.15;;;;;;;;;;5125070;27;20676;-46
2022/01/08 05:23:05;;;;;;;13.10;8.27;;;;;;;;;;5124903;28;20027;-44
2022/01/08 05:25:31;;;;;;;13.48;7.55;;;;;;;;;;5126105;28;20024;-43
2022/01/08 05:27:56;;;;;;;12.32;7.03;;;;;;;;;;5107881;28;20046;-46
2022/01/08 05:30:22;;;;;;;17.30;10.07;;;;;;;;;;5125940;28;20156;-46
2022/01/08 05:32:48;;;;;;;9.48;8.13;;;;;;;;;;5123492;28;20382;-44
2022/01/08 05:35:14;;;;;;;15.65;8.77;;;;;;;;;;5123822;28;20292;-49
2022/01/08 05:37:40;;;;;;;12.77;7.60;;;;;;;;;;5124186;28;20517;-46
2022/01/08 05:40:05;;;;;;;15.88;6.05;;;;;;;;;;5126217;28;20050;-44
2022/01/08 05:42:31;;;;;;;8.10;5.43;;;;;;;;;;5123502;28;20641;-47
2022/01/08 05:44:56;;;;;;;17.17;6.50;;;;;;;;;;5125591;28;20027;-45
2022/01/08 05:47:22;;;;;;;11.05;6.65;;;;;;;;;;5125400;28;20561;-45
2022/01/08 05:49:47;;;;;;;12.43;6.55;;;;;;;;;;5125278;28;20054;-49
2022/01/08 05:52:12;;;;;;;11.27;7.30;;;;;;;;;;5125658;28;20023;-46
2022/01/08 05:54:38;;;;;;;12.82;6.68;;;;;;;;;;5125296;27;20382;-44
2022/01/08 05:57:03;;;;;;;13.50;5.55;;;;;;;;;;5126637;27;20031;-45
2022/01/08 05:59:28;;;;;;;13.25;8.15;;;;;;;;;;5129761;27;20420;-44
2022/01/08 06:01:54;;;;;;;15.77;6.93;;;;;;;;;;5130369;27;20023;-47
2022/01/08 06:04:19;;;;;;;7.90;6.65;;;;;;;;;;5128767;27;20409;-49
2022/01/08 06:06:45;;;;;;;15.55;8.07;;;;;;;;;;5130412;27;20038;-47
2022/01/08 06:09:10;;;;;;;15.52;7.88;;;;;;;;;;5129736;27;20015;-46
2022/01/08 06:11:36;;;;;;;25.23;8.82;;;;;;;;;;5128190;27;20019;-44
2022/01/08 06:14:02;;;;;;;12.60;4.75;;;;;;;;;;5129941;27;20029;-47
2022/01/08 06:16:33;;;;;;;13.55;6.40;;;;;;;;;;5130877;27;20031;-50
2022/01/08 06:18:58;;;;;;;7.33;4.63;;;;;;;;;;5130196;27;20019;-46
2022/01/08 06:21:24;;;;;;;14.30;5.47;;;;;;;;;;5127967;27;20058;-49
2022/01/08 06:23:49;;;;;;;8.35;5.55;;;;;;;;;;5130273;27;20461;-44
2022/01/08 06:26:14;;;;;;;13.45;5.47;;;;;;;;;;5128929;27;20035;-44
2022/01/08 06:28:40;;;;;;;16.23;7.75;;;;;;;;;;5129471;27;20507;-47
2022/01/08 06:31:05;;;;;;;11.38;7.05;;;;;;;;;;5128785;27;20023;-46
2022/01/08 06:33:30;;;;;;;19.95;8.23;;;;;;;;;;5129929;27;20015;-47
2022/01/08 06:35:56;;;;;;;10.98;8.23;;;;;;;;;;5128949;27;20027;-45
2022/01/08 06:38:21;;;;;;;10.65;7.75;;;;;;;;;;5128877;27;20019;-45
2022/01/08 06:40:46;;;;;;;13.10;7.35;;;;;;;;;;5129826;27;20058;-46
2022/01/08 06:43:12;;;;;;;12.30;7.93;;;;;;;;;;5129636;27;20476;-45
2022/01/08 06:45:38;;;;;;;21.10;9.15;;;;;;;;;;5129099;27;20049;-45
2022/01/08 06:48:03;;;;;;;13.50;7.40;;;;;;;;;;5129832;27;20649;-43
2022/01/08 06:50:29;;;;;;;9.13;4.80;;;;;;;;;;5129120;27;20430;-46
2022/01/08 06:52:55;;;;;;;6.57;4.43;;;;;;;;;;5128862;27;20019;-46
2022/01/08 06:55:20;;;;;;;19.38;5.30;;;;;;;;;;5128189;27;20026;-47
2022/01/08 06:57:45;;;;;;;20.13;13.20;;;;;;;;;;5127963;27;20050;-44
2022/01/08 07:00:11;;;;;;;7.10;5.28;;;;;;;;;;5129494;27;20432;-49
2022/01/08 07:02:36;;;;;;;22.20;6.63;;;;;;;;;;5129276;27;20032;-48
2022/01/08 07:05:01;;;;;;;12.80;8.77;;;;;;;;;;5129387;27;20478;-47
2022/01/08 07:07:27;;;;;;;9.48;8.40;;;;;;;;;;5127723;27;20019;-43
2022/01/08 07:09:52;;;;;;;8.73;5.60;;;;;;;;;;5129654;27;20023;-46
2022/01/08 07:12:17;;;;;;;6.85;4.65;;;;;;;;;;5128903;27;20022;-49
2022/01/08 07:14:43;;;;;;;10.70;8.68;;;;;;;;;;5129737;27;20106;-46
2022/01/08 07:17:08;;;;;;;14.57;10.23;;;;;;;;;;5130322;27;20114;-46
2022/01/08 07:19:33;;;;;;;14.27;7.88;;;;;;;;;;5127836;27;20397;-48
2022/01/08 07:22:00;;;;;;;14.70;8.40;;;;;;;;;;5129747;27;20053;-46
2022/01/08 07:24:25;;;;;;;12.13;9.95;;;;;;;;;;5129057;27;20023;-44
2022/01/08 07:26:50;;;;;;;17.30;7.95;;;;;;;;;;5129112;27;20026;-48
2022/01/08 07:29:16;;;;;;;15.43;7.90;;;;;;;;;;5128157;27;20102;-47
2022/01/08 07:31:41;;;;;;;12.00;7.65;;;;;;;;;;5127091;27;20022;-46
2022/01/08 07:34:06;;;;;;;10.07;6.25;;;;;;;;;;5128943;27;20020;-47
2022/01/08 07:36:32;;;;;;;18.23;6.78;;;;;;;;;;5128843;27;20038;-44
2022/01/08 07:38:57;;;;;;;12.00;7.05;;;;;;;;;;5128372;27;20486;-44
2022/01/08 07:41:22;;;;;;;19.40;10.98;;;;;;;;;;5127404;27;20106;-47
2022/01/08 07:43:47;;;;;;;17.15;8.40;;;;;;;;;;5128145;27;20025;-44
2022/01/08 07:46:13;;;;;;;16.33;10.05;;;;;;;;;;5128701;27;20202;-44
2022/01/08 07:48:40;;;;;;;18.77;8.98;;;;;;;;;;5129240;27;20025;-48
2022/01/08 07:51:05;;;;;;;21.10;9.90;;;;;;;;;;5128588;27;20434;-47
2022/01/08 07:53:31;;;;;;;13.70;11.30;;;;;;;;;;5128868;27;20026;-49
2022/01/08 07:55:56;;;;;;;10.95;8.05;;;;;;;;;;5127169;27;20458;-48
2022/01/08 07:58:21;;;;;;;14.20;8.63;;;;;;;;;;5127615;27;20031;-45
2022/01/08 08:00:50;;;;;;;12.65;3.35;;;;;;;;;;5128717;27;20054;-46
2022/01/08 08:03:16;;;;;;;9.20;5.13;;;;;;;;;;5128311;27;20446;-48
2022/01/08 08:05:42;;;;;;;18.50;6.32;;;;;;;;;;5127080;27;20034;-45
2022/01/08 08:08:07;;;;;;;11.02;5.85;;;;;;;;;;5127764;27;20019;-47
2022/01/08 08:10:32;;;;;;;7.28;4.80;;;;;;;;;;5128023;27;20086;-47
2022/01/08 08:12:58;;;;;;;10.55;6.18;;;;;;;;;;5127382;27;20050;-45
2022/01/08 08:15:24;;;;;;;6.53;5.70;;;;;;;;;;5127883;27;20215;-47
2022/01/08 08:17:50;;;;;;;30.35;16.52;;;;;;;;;;5128014;27;20480;-48
2022/01/08 08:20:15;;;;;;;15.35;11.48;;;;;;;;;;5127069;27;20459;-46
2022/01/08 08:22:40;;;;;;;27.58;13.73;;;;;;;;;;5127715;27;20482;-44
2022/01/08 08:25:07;;;;;;;22.67;15.55;;;;;;;;;;5127949;27;20058;-44
2022/01/08 08:27:32;;;;;;;21.73;13.48;;;;;;;;;;5126574;27;20487;-44
2022/01/08 08:29:57;;;;;;;20.88;9.80;;;;;;;;;;5127702;27;20019;-49
2022/01/08 08:32:22;;;;;;;17.15;6.35;;;;;;;;;;5126025;27;20019;-50
2022/01/08 08:34:50;;;;;;;12.00;7.50;;;;;;;;;;5128103;27;20019;-49
2022/01/08 08:37:16;;;;;;;10.40;5.65;;;;;;;;;;5126665;27;20403;-47
2022/01/08 08:39:41;;;;;;;12.05;6.15;;;;;;;;;;5127401;27;20027;-49
2022/01/08 08:42:07;;;;;;;20.67;9.02;;;;;;;;;;5127054;27;20467;-48
2022/01/08 08:44:32;;;;;;;10.75;7.57;;;;;;;;;;5127390;27;20027;-46
2022/01/08 08:46:57;;;;;;;13.68;7.22;;;;;;;;;;5125801;27;20019;-49
2022/01/08 08:49:23;;;;;;;11.60;6.45;;;;;;;;;;5126562;27;20443;-48
2022/01/08 08:51:48;;;;;;;8.73;4.45;;;;;;;;;;5126207;27;20028;-45
2022/01/08 08:54:13;;;;;;;11.13;4.53;;;;;;;;;;5127377;27;20026;-43
2022/01/08 08:56:39;;;;;;;26.98;6.28;;;;;;;;;;5126923;27;20015;-44
2022/01/08 08:59:04;;;;;;;10.88;5.18;;;;;;;;;;5126561;27;20106;-45
2022/01/08 09:01:29;;;;;;;6.28;3.60;;;;;;;;;;5126968;27;20115;-48
2022/01/08 09:03:55;;;;;;;20.30;5.00;;;;;;;;;;5126800;27;20019;-47
2022/01/08 09:06:20;;;;;;;10.75;5.63;;;;;;;;;;5126527;27;20126;-48
2022/01/08 09:08:46;;;;;;;18.35;6.18;;;;;;;;;;5126771;27;20374;-46
2022/01/08 09:11:11;;;;;;;19.75;5.95;;;;;;;;;;5126315;27;20031;-45
2022/01/08 09:13:36;;;;;;;9.23;4.53;;;;;;;;;;5108212;27;20034;-47
2022/01/08 09:16:02;;;;;;;13.75;2.80;;;;;;;;;;5127082;27;20521;-46
2022/01/08 09:18:27;;;;;;;9.73;3.65;;;;;;;;;;5126851;27;20067;-50
2022/01/08 09:20:53;;;;;;;3.97;2.00;;;;;;;;;;5126795;28;20118;-45
2022/01/08 09:23:18;;;;;;;10.85;3.60;;;;;;;;;;5125884;28;20042;-41
2022/01/08 09:25:43;;;;;;;5.00;2.53;;;;;;;;;;5126034;28;20030;-45
2022/01/08 09:28:09;;;;;;;12.68;3.22;;;;;;;;;;5126529;28;20433;-43
2022/01/08 09:30:34;;;;;;;10.93;5.68;;;;;;;;;;5116396;27;20552;-43
2022/01/08 09:32:59;;;;;;;6.45;2.70;;;;;;;;;;5121960;27;21466;-45
2022/01/08 09:35:26;;;;;;;8.30;3.30;;;;;;;;;;5125574;27;20047;-45
2022/01/08 09:37:52;;;;;;;8.98;4.70;;;;;;;;;;5127932;27;20604;-47
2022/01/08 09:40:18;;;;;;;13.65;4.38;;;;;;;;;;5128213;27;20031;-46
2022/01/08 09:42:43;;;;;;;9.23;3.97;;;;;;;;;;5125668;27;20102;-48
2022/01/08 09:45:09;;;;;;;12.68;4.97;;;;;;;;;;5127953;27;20106;-45
2022/01/08 09:47:35;;;;;;;16.63;5.15;;;;;;;;;;5126237;27;20015;-46
2022/01/08 09:50:01;;;;;;;7.22;3.70;;;;;;;;;;5128296;27;20050;-47
2022/01/08 09:52:28;;;;;;;12.20;5.47;;;;;;;;;;5127539;27;20045;-48
2022/01/08 09:54:54;;;;;;;9.77;6.80;;;;;;;;;;5127735;27;20019;-45
2022/01/08 09:57:19;;;;;;;10.80;3.85;;;;;;;;;;5126322;27;20012;-46
2022/01/08 09:59:44;;;;;;;14.43;4.32;;;;;;;;;;5127194;27;20023;-48
2022/01/08 10:02:10;;;;;;;17.13;5.13;;;;;;;;;;5125431;27;20106;-48
2022/01/08 10:04:36;;;;;;;13.25;4.53;;;;;;;;;;5127245;27;20027;-49
2022/01/08 10:07:16;;;;;;;11.60;2.42;;;;;;;;;;5127199;27;20031;-46
2022/01/08 10:10:00;;;;;;;13.70;3.80;;;;;;;;;;5125663;27;20026;-47
2022/01/08 10:12:43;;;;;;;10.77;5.35;;;;;;;;;;5126506;27;20127;-60
2022/01/08 10:17:53;;;;;;;9.23;3.42;;;;;;;;;;5122768;27;20038;-44
2022/01/08 10:20:28;;;;;;;4.60;2.05;;;;;;;;;;5126909;27;20043;-53
2022/01/08 10:23:00;;;;;;;16.90;5.00;;;;;;;;;;5127159;27;20031;-48
2022/01/08 10:25:25;;;;;;;;;;;;;;;;;;5128306;27;20114;-51
2022/01/08 10:27:50;;;;;;;13.23;3.67;;;;;;;;;;5126921;27;20374;-49
2022/01/08 10:30:28;;;;;;;6.97;2.17;;;;;;;;;;5125603;27;20019;-50
2022/01/08 10:32:57;;;;;;;19.23;3.58;;;;;;;;;;5124386;27;20031;-55
2022/01/08 10:35:42;;;;;;;14.00;4.35;;;;;;;;;;5126625;27;20062;-54
2022/01/08 10:38:08;;;;;;;8.85;3.90;;;;;;;;;;5111558;27;20043;-56
2022/01/08 10:40:34;;;;;;;18.50;2.90;;;;;;;;;;5126110;27;20019;-55
2022/01/08 10:42:59;;;;;;;8.02;3.40;;;;;;;;;;5125895;27;20339;-56
2022/01/08 10:45:25;;;;;;;9.82;4.75;;;;;;;;;;5127877;27;20058;-55
2022/01/08 10:48:02;;;;;;;17.88;3.08;;;;;;;;;;5126588;27;20027;-55
2022/01/08 10:50:27;;;;;;;5.78;2.20;;;;;;;;;;5123766;27;20023;-55
2022/01/08 10:52:52;;;;;;;127.18;98.30;;;;;;;;;;5124987;27;20097;-56
2022/01/08 10:55:34;;;;;;;27.00;17.50;;;;;;;;;;5127233;27;20141;-56
2022/01/08 10:58:00;;;;;;;38.60;30.63;;;;;;;;;;5125927;27;20019;-56
2022/01/08 11:00:32;;;;;;;10.65;6.28;;;;;;;;;;5126944;27;20467;-55
2022/01/08 11:02:57;;;;;;;11.25;5.47;;;;;;;;;;5124908;27;20050;-55
2022/01/08 11:05:23;;;;;;;9.93;3.45;;;;;;;;;;5127318;27;20073;-56
2022/01/08 11:07:48;;;;;;;6.30;3.97;;;;;;;;;;5126726;27;20561;-57
2022/01/08 11:10:22;;;;;;;14.13;3.40;;;;;;;;;;5126775;27;20071;-56
2022/01/08 11:12:51;;;;;;;16.83;4.57;;;;;;;;;;5127400;27;20023;-57
2022/01/08 11:17:48;;;;;;;5.00;2.67;;;;;;;;;;5126215;27;20533;-57
2022/01/08 11:20:13;;;;;;;4.32;2.08;;;;;;;;;;5125328;27;20101;-57
2022/01/08 11:22:40;;;;;;;5.35;2.85;;;;;;;;;;5124477;27;20030;-57
2022/01/08 11:25:10;;;;;;;9.63;3.38;;;;;;;;;;5125687;27;20038;-57
2022/01/08 11:27:46;;;;;;;17.23;6.05;;;;;;;;;;5125058;27;20019;-57
2022/01/08 11:30:17;;;;;;;9.10;5.10;;;;;;;;;;5125895;27;20098;-58
2022/01/08 11:32:43;;;;;;;7.78;4.30;;;;;;;;;;5125116;27;20027;-57
2022/01/08 11:35:10;;;;;;;10.18;5.88;;;;;;;;;;5125624;27;20027;-57
2022/01/08 11:37:36;;;;;;;14.85;4.82;;;;;;;;;;5120512;27;20026;-57
2022/01/08 11:40:03;;;;;;;18.83;11.25;;;;;;;;;;5125618;27;20027;-57
2022/01/08 11:42:29;;;;;;;39.03;25.80;;;;;;;;;;5126296;27;20034;-58
2022/01/08 11:44:55;;;;;;;25.25;14.00;;;;;;;;;;5126017;27;20598;-57
2022/01/08 11:47:20;;;;;;;52.00;23.92;;;;;;;;;;5126496;27;20034;-57
2022/01/08 11:49:46;;;;;;;15.88;8.05;;;;;;;;;;5124649;27;20030;-54
2022/01/08 11:52:18;;;;;;;6.07;4.28;;;;;;;;;;5125710;27;20390;-56
2022/01/08 11:54:44;;;;;;;9.05;3.58;;;;;;;;;;5124523;27;20023;-57
2022/01/08 11:57:17;;;;;;;10.45;5.35;;;;;;;;;;5125309;27;20041;-57
2022/01/08 11:59:42;;;;;;;5.13;2.63;;;;;;;;;;5127772;27;20023;-56
2022/01/08 12:02:09;;;;;;;3.33;1.52;;;;;;;;;;5125919;27;20024;-55
2022/01/08 12:04:34;;;;;;;14.55;2.35;;;;;;;;;;5126529;27;20094;-56
2022/01/08 12:07:18;;;;;;;18.40;2.35;;;;;;;;;;5127429;27;20110;-56
2022/01/08 12:09:44;;;;;;;12.90;2.95;;;;;;;;;;5128454;27;20007;-57
2022/01/08 12:12:09;;;;;;;4.03;1.23;;;;;;;;;;5128137;27;20030;-57
2022/01/08 12:14:38;;;;;;;7.53;2.17;;;;;;;;;;5127104;27;20023;-57
2022/01/08 12:17:13;;;;;;;21.65;8.75;;;;;;;;;;5126767;27;20590;-55
2022/01/08 12:19:39;;;;;;;14.23;7.93;;;;;;;;;;5126437;27;20039;-56
2022/01/08 12:22:16;;;;;;;18.77;10.18;;;;;;;;;;5127002;27;20016;-56
2022/01/08 12:24:45;;;;;;;10.52;5.53;;;;;;;;;;5126032;27;20019;-56
2022/01/08 12:27:21;;;;;;;15.05;5.78;;;;;;;;;;5126778;27;20019;-55
2022/01/08 12:29:46;;;;;;;11.18;7.38;;;;;;;;;;5126126;27;20429;-56
2022/01/08 12:32:35;;;;;;;8.32;4.05;;;;;;;;;;5127210;27;20027;-55
2022/01/08 12:35:19;;;;;;;3.10;1.30;;;;;;;;;;5127156;27;20034;-56
2022/01/08 12:38:05;;;;;;;8.57;3.75;;;;;;;;;;5127651;27;20051;-56
2022/01/08 12:40:41;;;;;;;4.82;1.63;;;;;;;;;;5126733;27;20027;-56
2022/01/08 12:43:15;;;;;;;12.88;4.93;;;;;;;;;;5126555;27;20053;-56
2022/01/08 12:45:42;;;;;;;13.48;4.00;;;;;;;;;;5125693;27;20153;-53
2022/01/08 12:48:09;;;;;;;15.25;7.95;;;;;;;;;;5127206;27;20562;-54
2022/01/08 12:50:43;;;;;;;4.00;1.70;;;;;;;;;;5127445;27;20049;-56
2022/01/08 12:53:12;;;;;;;14.60;5.10;;;;;;;;;;5127331;27;20420;-56
2022/01/08 12:55:40;;;;;;;6.75;4.32;;;;;;;;;;5126825;27;20026;-56
2022/01/08 12:58:24;;;;;;;16.00;4.45;;;;;;;;;;5125747;27;20484;-53
2022/01/08 13:00:52;;;;;;;18.40;5.47;;;;;;;;;;5125918;27;20019;-55
2022/01/08 13:03:22;;;;;;;10.50;3.78;;;;;;;;;;5125876;27;20497;-55
2022/01/08 13:05:47;;;;;;;9.07;2.50;;;;;;;;;;5126195;27;20173;-56
2022/01/08 13:08:20;;;;;;;4.13;2.88;;;;;;;;;;5126458;27;20540;-57
2022/01/08 13:10:47;;;;;;;8.43;3.00;;;;;;;;;;5126481;27;20022;-55
2022/01/08 13:13:12;;;;;;;11.00;4.35;;;;;;;;;;5126680;27;20517;-57
2022/01/08 13:15:37;;;;;;;7.72;4.00;;;;;;;;;;5126652;27;20165;-56
2022/01/08 13:18:16;;;;;;;14.73;3.70;;;;;;;;;;5126541;27;20030;-56
2022/01/08 13:20:44;;;;;;;2.75;1.65;;;;;;;;;;5125675;27;20051;-57
2022/01/08 13:23:10;;;;;;;5.03;2.65;;;;;;;;;;5124592;28;20024;-58
2022/01/08 13:25:36;;;;;;;15.38;7.05;;;;;;;;;;5126523;28;20027;-58
2022/01/08 13:28:01;;;;;;;6.25;2.63;;;;;;;;;;5126800;28;20543;-57
2022/01/08 13:30:27;;;;;;;4.68;1.73;;;;;;;;;;5123291;28;20371;-57
2022/01/08 13:33:02;;;;;;;6.35;1.20;;;;;;;;;;5125972;27;20152;-57
2022/01/08 13:35:28;;;;;;;3.72;1.75;;;;;;;;;;5124271;28;20435;-58
2022/01/08 13:37:54;;;;;;;7.93;2.90;;;;;;;;;;5125619;28;20031;-57
2022/01/08 13:40:19;;;;;;;2.83;1.48;;;;;;;;;;5126577;28;20509;-58
2022/01/08 13:42:44;;;;;;;2.38;1.10;;;;;;;;;;5124319;28;20019;-58
2022/01/08 13:45:12;;;;;;;6.20;2.67;;;;;;;;;;5125039;28;20035;-57
2022/01/08 13:47:54;;;;;;;8.18;2.13;;;;;;;;;;5125393;28;20011;-57
2022/01/08 13:50:32;;;;;;;2.33;0.57;;;;;;;;;;5125518;27;20088;-57
2022/01/08 13:53:03;;;;;;;16.58;3.50;;;;;;;;;;5122938;28;20023;-58
2022/01/08 13:55:34;;;;;;;3.93;1.97;;;;;;;;;;5125498;28;20051;-57
2022/01/08 13:58:04;;;;;;;7.18;3.67;;;;;;;;;;5126108;28;20137;-57
2022/01/08 14:00:31;;;;;;;2.00;1.05;;;;;;;;;;5126163;28;20446;-56
2022/01/08 14:02:57;;;;;;;2.55;1.85;;;;;;;;;;5126209;27;20027;-58
2022/01/08 14:05:23;;;;;;;1.70;0.52;;;;;;;;;;5124543;28;20028;-57
2022/01/08 14:07:49;;;;;;;2.28;1.40;;;;;;;;;;5123935;28;20012;-57
2022/01/08 14:10:15;;;;;;;3.38;1.13;;;;;;;;;;5126082;28;20050;-58
2022/01/08 14:12:59;;;;;;;4.00;1.23;;;;;;;;;;5124383;28;20027;-57
2022/01/08 14:15:25;;;;;;;3.25;1.17;;;;;;;;;;5125669;28;20049;-57
2022/01/08 14:17:50;;;;;;;6.53;2.22;;;;;;;;;;5126054;27;20023;-58
2022/01/08 14:20:21;;;;;;;5.10;1.25;;;;;;;;;;5129479;27;20452;-58
2022/01/08 14:22:46;;;;;;;6.00;2.38;;;;;;;;;;5129417;27;20063;-58
2022/01/08 14:25:17;;;;;;;4.22;1.17;;;;;;;;;;5129443;27;20035;-58
2022/01/08 14:27:42;;;;;;;5.28;1.67;;;;;;;;;;5128910;27;20015;-57
2022/01/08 14:30:09;;;;;;;4.38;2.10;;;;;;;;;;5129622;27;20546;-58
2022/01/08 14:32:35;;;;;;;3.63;2.65;;;;;;;;;;5129325;27;20038;-57
2022/01/08 14:35:01;;;;;;;7.32;4.40;;;;;;;;;;5128803;27;20023;-57
2022/01/08 14:37:28;;;;;;;11.23;4.40;;;;;;;;;;5129256;27;20024;-58
2022/01/08 14:39:54;;;;;;;4.32;3.38;;;;;;;;;;5128354;27;20019;-58
2022/01/08 14:42:19;;;;;;;17.08;4.03;;;;;;;;;;5128519;27;20532;-58
2022/01/08 14:44:53;;;;;;;8.20;4.95;;;;;;;;;;5129341;27;20023;-57
2022/01/08 14:47:31;;;;;;;3.78;1.63;;;;;;;;;;5129341;27;20699;-57
2022/01/08 14:49:56;;;;;;;8.80;1.38;;;;;;;;;;5128510;27;20019;-57
2022/01/08 14:52:21;;;;;;;1.60;1.08;;;;;;;;;;5129161;27;20079;-57
2022/01/08 14:54:47;;;;;;;2.03;0.80;;;;;;;;;;5129196;27;20435;-57
2022/01/08 14:57:12;;;;;;;4.88;2.00;;;;;;;;;;5128623;27;20027;-58
2022/01/08 14:59:37;;;;;;;6.13;3.28;;;;;;;;;;5129371;27;20140;-57